sensor_id;sensor_type;location;lat;lon;timestamp;P1;durP1;ratioP1;P2;durP2;ratioP2
11319;SDS011;5715;48.234;14.320;2024-03-02T00:02:22;22.77;;;8.10;;
11319;SDS011;5715;48.234;14.320;2024-03-02T00:05:10;14.43;;;10.80;;
11319;SDS011;5715;48.234;14.320;2024-03-02T00:08:01;18.10;;;8.73;;
11319;SDS011;5715;48.234;14.320;2024-03-02T00:10:52;26.20;;;10.20;;
11319;SDS011;5715;48.234;14.320;2024-03-02T00:13:52;17.87;;;10.07;;
11319;SDS011;5715;48.234;14.320;2024-03-02T00:16:40;23.87;;;11.70;;
11319;SDS011;5715;48.234;14.320;2024-03-02T00:19:29;13.10;;;8.23;;
11319;SDS011;5715;48.234;14.320;2024-03-02T00:22:16;13.97;;;7.77;;
11319;SDS011;5715;48.234;14.320;2024-03-02T00:25:04;26.80;;;9.67;;
11319;SDS011;5715;48.234;14.320;2024-03-02T00:27:55;21.97;;;8.97;;
11319;SDS011;5715;48.234;14.320;2024-03-02T00:33:43;20.00;;;8.33;;
11319;SDS011;5715;48.234;14.320;2024-03-02T00:36:33;19.60;;;9.60;;
11319;SDS011;5715;48.234;14.320;2024-03-02T00:39:21;11.90;;;6.13;;
11319;SDS011;5715;48.234;14.320;2024-03-02T00:42:09;20.30;;;10.97;;
11319;SDS011;5715;48.234;14.320;2024-03-02T00:44:58;22.80;;;8.90;;
11319;SDS011;5715;48.234;14.320;2024-03-02T00:47:46;16.17;;;8.57;;
11319;SDS011;5715;48.234;14.320;2024-03-02T00:50:34;12.67;;;7.00;;
11319;SDS011;5715;48.234;14.320;2024-03-02T00:53:22;17.90;;;8.83;;
11319;SDS011;5715;48.234;14.320;2024-03-02T00:56:13;17.83;;;7.60;;
11319;SDS011;5715;48.234;14.320;2024-03-02T00:59:01;15.13;;;7.83;;
11319;SDS011;5715;48.234;14.320;2024-03-02T01:01:48;14.97;;;7.83;;
11319;SDS011;5715;48.234;14.320;2024-03-02T01:04:36;21.60;;;8.73;;
11319;SDS011;5715;48.234;14.320;2024-03-02T01:07:24;15.77;;;8.37;;
11319;SDS011;5715;48.234;14.320;2024-03-02T01:10:11;14.33;;;8.33;;
11319;SDS011;5715;48.234;14.320;2024-03-02T01:12:59;19.50;;;7.80;;
11319;SDS011;5715;48.234;14.320;2024-03-02T01:15:47;10.10;;;7.67;;
11319;SDS011;5715;48.234;14.320;2024-03-02T01:18:35;15.23;;;9.10;;
11319;SDS011;5715;48.234;14.320;2024-03-02T01:21:22;9.53;;;7.07;;
11319;SDS011;5715;48.234;14.320;2024-03-02T01:24:10;9.47;;;8.10;;
11319;SDS011;5715;48.234;14.320;2024-03-02T01:26:58;13.77;;;8.27;;
11319;SDS011;5715;48.234;14.320;2024-03-02T01:29:45;16.57;;;8.77;;
11319;SDS011;5715;48.234;14.320;2024-03-02T01:32:33;14.80;;;8.03;;
11319;SDS011;5715;48.234;14.320;2024-03-02T01:35:20;9.83;;;7.43;;
11319;SDS011;5715;48.234;14.320;2024-03-02T01:38:08;15.47;;;7.80;;
11319;SDS011;5715;48.234;14.320;2024-03-02T01:40:56;19.83;;;8.43;;
11319;SDS011;5715;48.234;14.320;2024-03-02T01:43:45;9.83;;;7.17;;
11319;SDS011;5715;48.234;14.320;2024-03-02T01:46:32;13.70;;;8.60;;
11319;SDS011;5715;48.234;14.320;2024-03-02T01:49:20;15.93;;;7.63;;
11319;SDS011;5715;48.234;14.320;2024-03-02T01:52:08;19.20;;;8.03;;
11319;SDS011;5715;48.234;14.320;2024-03-02T01:54:55;12.33;;;8.47;;
11319;SDS011;5715;48.234;14.320;2024-03-02T01:57:43;11.17;;;7.40;;
11319;SDS011;5715;48.234;14.320;2024-03-02T02:00:31;18.67;;;8.10;;
11319;SDS011;5715;48.234;14.320;2024-03-02T02:03:19;15.73;;;7.90;;
11319;SDS011;5715;48.234;14.320;2024-03-02T02:06:07;19.00;;;9.50;;
11319;SDS011;5715;48.234;14.320;2024-03-02T02:08:55;12.00;;;8.13;;
11319;SDS011;5715;48.234;14.320;2024-03-02T02:11:43;10.50;;;8.20;;
11319;SDS011;5715;48.234;14.320;2024-03-02T02:14:30;11.97;;;6.73;;
11319;SDS011;5715;48.234;14.320;2024-03-02T02:17:18;10.30;;;7.00;;
11319;SDS011;5715;48.234;14.320;2024-03-02T02:20:06;10.83;;;7.83;;
11319;SDS011;5715;48.234;14.320;2024-03-02T02:22:59;10.73;;;6.57;;
11319;SDS011;5715;48.234;14.320;2024-03-02T02:25:48;15.40;;;7.33;;
11319;SDS011;5715;48.234;14.320;2024-03-02T02:28:36;13.97;;;6.60;;
11319;SDS011;5715;48.234;14.320;2024-03-02T02:31:24;15.90;;;7.80;;
11319;SDS011;5715;48.234;14.320;2024-03-02T02:34:11;14.20;;;8.03;;
11319;SDS011;5715;48.234;14.320;2024-03-02T02:37:01;17.47;;;8.77;;
11319;SDS011;5715;48.234;14.320;2024-03-02T02:39:48;13.50;;;7.60;;
11319;SDS011;5715;48.234;14.320;2024-03-02T02:42:36;19.53;;;6.97;;
11319;SDS011;5715;48.234;14.320;2024-03-02T02:45:24;10.63;;;6.73;;
11319;SDS011;5715;48.234;14.320;2024-03-02T02:48:12;18.37;;;9.50;;
11319;SDS011;5715;48.234;14.320;2024-03-02T02:51:00;10.90;;;7.13;;
11319;SDS011;5715;48.234;14.320;2024-03-02T02:53:47;18.87;;;9.50;;
11319;SDS011;5715;48.234;14.320;2024-03-02T02:56:35;10.53;;;7.70;;
11319;SDS011;5715;48.234;14.320;2024-03-02T02:59:22;11.90;;;7.87;;
11319;SDS011;5715;48.234;14.320;2024-03-02T03:02:10;15.07;;;8.03;;
11319;SDS011;5715;48.234;14.320;2024-03-02T03:04:58;13.37;;;7.83;;
11319;SDS011;5715;48.234;14.320;2024-03-02T03:07:45;11.87;;;8.47;;
11319;SDS011;5715;48.234;14.320;2024-03-02T03:10:35;25.23;;;7.37;;
11319;SDS011;5715;48.234;14.320;2024-03-02T03:13:23;15.73;;;7.67;;
11319;SDS011;5715;48.234;14.320;2024-03-02T03:16:11;19.30;;;10.47;;
11319;SDS011;5715;48.234;14.320;2024-03-02T03:18:59;13.90;;;9.63;;
11319;SDS011;5715;48.234;14.320;2024-03-02T03:21:46;15.47;;;7.90;;
11319;SDS011;5715;48.234;14.320;2024-03-02T03:24:34;21.67;;;8.77;;
11319;SDS011;5715;48.234;14.320;2024-03-02T03:27:22;8.80;;;6.93;;
11319;SDS011;5715;48.234;14.320;2024-03-02T03:30:10;20.00;;;8.43;;
11319;SDS011;5715;48.234;14.320;2024-03-02T03:32:58;11.13;;;6.27;;
11319;SDS011;5715;48.234;14.320;2024-03-02T03:35:45;28.53;;;8.50;;
11319;SDS011;5715;48.234;14.320;2024-03-02T03:38:33;11.93;;;7.03;;
11319;SDS011;5715;48.234;14.320;2024-03-02T03:41:20;13.23;;;8.57;;
11319;SDS011;5715;48.234;14.320;2024-03-02T03:44:08;12.40;;;8.40;;
11319;SDS011;5715;48.234;14.320;2024-03-02T03:46:56;24.37;;;9.10;;
11319;SDS011;5715;48.234;14.320;2024-03-02T03:49:44;16.93;;;8.40;;
11319;SDS011;5715;48.234;14.320;2024-03-02T03:52:31;16.67;;;9.73;;
11319;SDS011;5715;48.234;14.320;2024-03-02T03:55:19;18.20;;;7.87;;
11319;SDS011;5715;48.234;14.320;2024-03-02T03:58:06;12.53;;;6.27;;
11319;SDS011;5715;48.234;14.320;2024-03-02T04:00:54;17.97;;;9.23;;
11319;SDS011;5715;48.234;14.320;2024-03-02T04:03:42;14.90;;;8.73;;
11319;SDS011;5715;48.234;14.320;2024-03-02T04:06:29;17.53;;;9.23;;
11319;SDS011;5715;48.234;14.320;2024-03-02T04:09:17;15.10;;;8.60;;
11319;SDS011;5715;48.234;14.320;2024-03-02T04:12:07;23.57;;;7.03;;
11319;SDS011;5715;48.234;14.320;2024-03-02T04:14:55;12.37;;;7.27;;
11319;SDS011;5715;48.234;14.320;2024-03-02T04:17:43;9.60;;;8.00;;
11319;SDS011;5715;48.234;14.320;2024-03-02T04:20:30;12.37;;;8.07;;
11319;SDS011;5715;48.234;14.320;2024-03-02T04:23:18;32.60;;;8.40;;
11319;SDS011;5715;48.234;14.320;2024-03-02T04:26:06;12.87;;;7.13;;
11319;SDS011;5715;48.234;14.320;2024-03-02T04:28:53;7.30;;;6.40;;
11319;SDS011;5715;48.234;14.320;2024-03-02T04:31:41;13.67;;;8.10;;
11319;SDS011;5715;48.234;14.320;2024-03-02T04:34:28;13.90;;;8.53;;
11319;SDS011;5715;48.234;14.320;2024-03-02T04:37:16;15.23;;;8.13;;
11319;SDS011;5715;48.234;14.320;2024-03-02T04:40:04;15.23;;;7.77;;
11319;SDS011;5715;48.234;14.320;2024-03-02T04:42:55;17.83;;;8.60;;
11319;SDS011;5715;48.234;14.320;2024-03-02T04:45:43;15.60;;;8.23;;
11319;SDS011;5715;48.234;14.320;2024-03-02T04:48:31;13.83;;;6.67;;
11319;SDS011;5715;48.234;14.320;2024-03-02T04:51:18;11.87;;;7.53;;
11319;SDS011;5715;48.234;14.320;2024-03-02T04:54:06;20.23;;;7.93;;
11319;SDS011;5715;48.234;14.320;2024-03-02T04:56:54;19.40;;;8.70;;
11319;SDS011;5715;48.234;14.320;2024-03-02T04:59:41;16.27;;;7.07;;
11319;SDS011;5715;48.234;14.320;2024-03-02T05:02:29;14.70;;;7.30;;
11319;SDS011;5715;48.234;14.320;2024-03-02T05:05:16;19.20;;;9.63;;
11319;SDS011;5715;48.234;14.320;2024-03-02T05:08:04;13.37;;;7.07;;
11319;SDS011;5715;48.234;14.320;2024-03-02T05:10:52;10.40;;;7.83;;
11319;SDS011;5715;48.234;14.320;2024-03-02T05:13:39;16.97;;;9.77;;
11319;SDS011;5715;48.234;14.320;2024-03-02T05:16:27;28.43;;;9.33;;
11319;SDS011;5715;48.234;14.320;2024-03-02T05:19:14;18.57;;;8.73;;
11319;SDS011;5715;48.234;14.320;2024-03-02T05:22:02;17.93;;;8.47;;
11319;SDS011;5715;48.234;14.320;2024-03-02T05:24:50;13.93;;;8.40;;
11319;SDS011;5715;48.234;14.320;2024-03-02T05:27:37;15.50;;;8.03;;
11319;SDS011;5715;48.234;14.320;2024-03-02T05:30:25;13.70;;;7.20;;
11319;SDS011;5715;48.234;14.320;2024-03-02T05:33:15;18.90;;;8.67;;
11319;SDS011;5715;48.234;14.320;2024-03-02T05:36:03;19.40;;;9.60;;
11319;SDS011;5715;48.234;14.320;2024-03-02T05:38:52;10.53;;;7.40;;
11319;SDS011;5715;48.234;14.320;2024-03-02T05:41:40;13.80;;;7.10;;
11319;SDS011;5715;48.234;14.320;2024-03-02T05:44:27;14.80;;;8.30;;
11319;SDS011;5715;48.234;14.320;2024-03-02T05:47:15;12.70;;;8.10;;
11319;SDS011;5715;48.234;14.320;2024-03-02T05:50:03;13.60;;;8.30;;
11319;SDS011;5715;48.234;14.320;2024-03-02T05:52:52;26.37;;;9.53;;
11319;SDS011;5715;48.234;14.320;2024-03-02T05:55:39;12.93;;;7.70;;
11319;SDS011;5715;48.234;14.320;2024-03-02T05:58:27;17.20;;;6.70;;
11319;SDS011;5715;48.234;14.320;2024-03-02T06:01:33;16.03;;;8.30;;
11319;SDS011;5715;48.234;14.320;2024-03-02T06:04:21;12.30;;;9.00;;
11319;SDS011;5715;48.234;14.320;2024-03-02T06:07:09;14.87;;;7.17;;
11319;SDS011;5715;48.234;14.320;2024-03-02T06:09:57;19.40;;;8.07;;
11319;SDS011;5715;48.234;14.320;2024-03-02T06:12:45;17.40;;;10.47;;
11319;SDS011;5715;48.234;14.320;2024-03-02T06:15:33;12.20;;;8.60;;
11319;SDS011;5715;48.234;14.320;2024-03-02T06:18:22;21.13;;;12.53;;
11319;SDS011;5715;48.234;14.320;2024-03-02T06:21:10;14.07;;;8.20;;
11319;SDS011;5715;48.234;14.320;2024-03-02T06:23:58;16.53;;;9.27;;
11319;SDS011;5715;48.234;14.320;2024-03-02T06:26:45;16.40;;;7.90;;
11319;SDS011;5715;48.234;14.320;2024-03-02T06:29:33;13.10;;;7.53;;
11319;SDS011;5715;48.234;14.320;2024-03-02T06:32:21;15.87;;;8.97;;
11319;SDS011;5715;48.234;14.320;2024-03-02T06:35:09;19.23;;;9.17;;
11319;SDS011;5715;48.234;14.320;2024-03-02T06:37:57;22.23;;;10.47;;
11319;SDS011;5715;48.234;14.320;2024-03-02T06:40:45;13.87;;;10.57;;
11319;SDS011;5715;48.234;14.320;2024-03-02T06:43:32;14.87;;;11.07;;
11319;SDS011;5715;48.234;14.320;2024-03-02T06:46:20;21.77;;;10.67;;
11319;SDS011;5715;48.234;14.320;2024-03-02T06:49:07;21.03;;;11.33;;
11319;SDS011;5715;48.234;14.320;2024-03-02T06:51:57;14.20;;;8.53;;
11319;SDS011;5715;48.234;14.320;2024-03-02T06:54:44;24.87;;;10.73;;
11319;SDS011;5715;48.234;14.320;2024-03-02T06:57:32;21.37;;;12.27;;
11319;SDS011;5715;48.234;14.320;2024-03-02T07:00:22;17.47;;;10.53;;
11319;SDS011;5715;48.234;14.320;2024-03-02T07:03:11;21.67;;;12.50;;
11319;SDS011;5715;48.234;14.320;2024-03-02T07:05:59;18.40;;;11.20;;
11319;SDS011;5715;48.234;14.320;2024-03-02T07:08:47;27.83;;;12.13;;
11319;SDS011;5715;48.234;14.320;2024-03-02T07:11:35;20.03;;;10.97;;
11319;SDS011;5715;48.234;14.320;2024-03-02T07:14:22;27.27;;;10.67;;
11319;SDS011;5715;48.234;14.320;2024-03-02T07:17:30;16.43;;;9.03;;
11319;SDS011;5715;48.234;14.320;2024-03-02T07:20:18;23.30;;;10.23;;
11319;SDS011;5715;48.234;14.320;2024-03-02T07:23:06;22.10;;;10.83;;
11319;SDS011;5715;48.234;14.320;2024-03-02T07:25:54;27.37;;;10.50;;
11319;SDS011;5715;48.234;14.320;2024-03-02T07:28:46;26.27;;;10.53;;
11319;SDS011;5715;48.234;14.320;2024-03-02T07:31:37;32.40;;;13.27;;
11319;SDS011;5715;48.234;14.320;2024-03-02T07:34:24;27.57;;;10.13;;
11319;SDS011;5715;48.234;14.320;2024-03-02T07:37:12;20.73;;;11.23;;
11319;SDS011;5715;48.234;14.320;2024-03-02T07:39:59;12.47;;;8.93;;
11319;SDS011;5715;48.234;14.320;2024-03-02T07:42:47;22.03;;;12.30;;
11319;SDS011;5715;48.234;14.320;2024-03-02T07:45:35;29.30;;;13.67;;
11319;SDS011;5715;48.234;14.320;2024-03-02T07:48:23;13.80;;;10.27;;
11319;SDS011;5715;48.234;14.320;2024-03-02T07:51:11;20.97;;;11.30;;
11319;SDS011;5715;48.234;14.320;2024-03-02T07:54:00;28.77;;;11.17;;
11319;SDS011;5715;48.234;14.320;2024-03-02T07:56:48;18.47;;;10.33;;
11319;SDS011;5715;48.234;14.320;2024-03-02T07:59:38;21.50;;;9.83;;
11319;SDS011;5715;48.234;14.320;2024-03-02T08:02:26;19.80;;;11.93;;
11319;SDS011;5715;48.234;14.320;2024-03-02T08:05:14;19.37;;;10.73;;
11319;SDS011;5715;48.234;14.320;2024-03-02T08:08:02;19.77;;;9.60;;
11319;SDS011;5715;48.234;14.320;2024-03-02T08:10:51;24.03;;;13.63;;
11319;SDS011;5715;48.234;14.320;2024-03-02T08:13:39;33.00;;;10.80;;
11319;SDS011;5715;48.234;14.320;2024-03-02T08:16:26;17.83;;;10.27;;
11319;SDS011;5715;48.234;14.320;2024-03-02T08:19:14;14.17;;;8.10;;
11319;SDS011;5715;48.234;14.320;2024-03-02T08:22:02;19.57;;;10.93;;
11319;SDS011;5715;48.234;14.320;2024-03-02T08:24:51;21.33;;;10.23;;
11319;SDS011;5715;48.234;14.320;2024-03-02T08:27:39;21.17;;;11.30;;
11319;SDS011;5715;48.234;14.320;2024-03-02T08:30:27;15.30;;;9.07;;
11319;SDS011;5715;48.234;14.320;2024-03-02T08:33:15;16.50;;;9.70;;
11319;SDS011;5715;48.234;14.320;2024-03-02T08:36:02;19.53;;;10.43;;
11319;SDS011;5715;48.234;14.320;2024-03-02T08:38:51;14.07;;;8.50;;
11319;SDS011;5715;48.234;14.320;2024-03-02T08:41:38;17.50;;;9.97;;
11319;SDS011;5715;48.234;14.320;2024-03-02T08:44:26;15.83;;;9.40;;
11319;SDS011;5715;48.234;14.320;2024-03-02T08:47:13;15.67;;;9.50;;
11319;SDS011;5715;48.234;14.320;2024-03-02T08:50:01;16.80;;;9.27;;
11319;SDS011;5715;48.234;14.320;2024-03-02T08:52:50;21.40;;;9.93;;
11319;SDS011;5715;48.234;14.320;2024-03-02T08:55:38;16.20;;;9.63;;
11319;SDS011;5715;48.234;14.320;2024-03-02T08:58:25;18.20;;;9.73;;
11319;SDS011;5715;48.234;14.320;2024-03-02T09:01:13;17.47;;;8.40;;
11319;SDS011;5715;48.234;14.320;2024-03-02T09:04:01;18.30;;;9.80;;
11319;SDS011;5715;48.234;14.320;2024-03-02T09:06:48;18.13;;;9.67;;
11319;SDS011;5715;48.234;14.320;2024-03-02T09:09:39;14.13;;;9.03;;
11319;SDS011;5715;48.234;14.320;2024-03-02T09:12:27;16.13;;;9.53;;
11319;SDS011;5715;48.234;14.320;2024-03-02T09:15:14;13.97;;;9.23;;
11319;SDS011;5715;48.234;14.320;2024-03-02T09:18:03;14.87;;;8.93;;
11319;SDS011;5715;48.234;14.320;2024-03-02T09:20:51;14.70;;;9.00;;
11319;SDS011;5715;48.234;14.320;2024-03-02T09:23:39;12.37;;;7.73;;
11319;SDS011;5715;48.234;14.320;2024-03-02T09:26:27;22.97;;;9.77;;
11319;SDS011;5715;48.234;14.320;2024-03-02T09:29:14;16.77;;;8.70;;
11319;SDS011;5715;48.234;14.320;2024-03-02T09:32:02;15.57;;;8.00;;
11319;SDS011;5715;48.234;14.320;2024-03-02T09:34:52;14.47;;;8.00;;
11319;SDS011;5715;48.234;14.320;2024-03-02T09:37:40;15.13;;;8.80;;
11319;SDS011;5715;48.234;14.320;2024-03-02T09:40:27;16.60;;;9.00;;
11319;SDS011;5715;48.234;14.320;2024-03-02T09:43:15;19.33;;;9.37;;
11319;SDS011;5715;48.234;14.320;2024-03-02T09:46:03;12.87;;;7.33;;
11319;SDS011;5715;48.234;14.320;2024-03-02T09:48:51;14.87;;;7.93;;
11319;SDS011;5715;48.234;14.320;2024-03-02T09:51:39;15.20;;;7.67;;
11319;SDS011;5715;48.234;14.320;2024-03-02T09:54:34;21.80;;;8.60;;
11319;SDS011;5715;48.234;14.320;2024-03-02T09:57:22;10.87;;;6.23;;
11319;SDS011;5715;48.234;14.320;2024-03-02T10:00:10;12.80;;;9.17;;
11319;SDS011;5715;48.234;14.320;2024-03-02T10:03:02;12.87;;;8.10;;
11319;SDS011;5715;48.234;14.320;2024-03-02T10:05:51;10.53;;;7.27;;
11319;SDS011;5715;48.234;14.320;2024-03-02T10:08:42;12.77;;;7.20;;
11319;SDS011;5715;48.234;14.320;2024-03-02T10:11:31;16.00;;;8.60;;
11319;SDS011;5715;48.234;14.320;2024-03-02T10:14:22;12.37;;;6.87;;
11319;SDS011;5715;48.234;14.320;2024-03-02T10:17:10;15.40;;;8.83;;
11319;SDS011;5715;48.234;14.320;2024-03-02T10:19:59;16.43;;;8.37;;
11319;SDS011;5715;48.234;14.320;2024-03-02T10:23:16;13.63;;;7.30;;
11319;SDS011;5715;48.234;14.320;2024-03-02T10:26:09;13.43;;;6.83;;
11319;SDS011;5715;48.234;14.320;2024-03-02T10:29:05;12.33;;;7.77;;
11319;SDS011;5715;48.234;14.320;2024-03-02T10:31:54;10.43;;;6.53;;
11319;SDS011;5715;48.234;14.320;2024-03-02T10:34:44;12.77;;;6.00;;
11319;SDS011;5715;48.234;14.320;2024-03-02T10:37:34;16.03;;;7.77;;
11319;SDS011;5715;48.234;14.320;2024-03-02T10:40:22;15.70;;;7.77;;
11319;SDS011;5715;48.234;14.320;2024-03-02T10:43:10;17.07;;;8.07;;
11319;SDS011;5715;48.234;14.320;2024-03-02T10:45:59;14.73;;;7.93;;
11319;SDS011;5715;48.234;14.320;2024-03-02T10:48:47;18.00;;;8.47;;
11319;SDS011;5715;48.234;14.320;2024-03-02T10:51:36;21.17;;;7.53;;
11319;SDS011;5715;48.234;14.320;2024-03-02T10:54:24;14.27;;;8.60;;
11319;SDS011;5715;48.234;14.320;2024-03-02T10:57:13;16.47;;;8.57;;
11319;SDS011;5715;48.234;14.320;2024-03-02T11:00:11;18.80;;;8.20;;
11319;SDS011;5715;48.234;14.320;2024-03-02T11:03:04;16.37;;;8.27;;
11319;SDS011;5715;48.234;14.320;2024-03-02T11:05:57;14.17;;;8.47;;
11319;SDS011;5715;48.234;14.320;2024-03-02T11:08:47;15.67;;;8.43;;
11319;SDS011;5715;48.234;14.320;2024-03-02T11:11:43;13.40;;;8.63;;
11319;SDS011;5715;48.234;14.320;2024-03-02T11:14:32;13.33;;;7.33;;
11319;SDS011;5715;48.234;14.320;2024-03-02T11:17:21;14.60;;;7.73;;
11319;SDS011;5715;48.234;14.320;2024-03-02T11:20:11;12.93;;;7.33;;
11319;SDS011;5715;48.234;14.320;2024-03-02T11:23:04;13.97;;;8.33;;
11319;SDS011;5715;48.234;14.320;2024-03-02T11:25:53;16.10;;;8.73;;
11319;SDS011;5715;48.234;14.320;2024-03-02T11:28:41;16.67;;;7.73;;
11319;SDS011;5715;48.234;14.320;2024-03-02T11:31:56;15.23;;;8.07;;
11319;SDS011;5715;48.234;14.320;2024-03-02T11:34:47;19.07;;;7.17;;
11319;SDS011;5715;48.234;14.320;2024-03-02T11:37:37;12.63;;;8.73;;
11319;SDS011;5715;48.234;14.320;2024-03-02T11:40:25;16.87;;;8.27;;
11319;SDS011;5715;48.234;14.320;2024-03-02T11:43:13;15.37;;;9.40;;
11319;SDS011;5715;48.234;14.320;2024-03-02T11:46:03;25.83;;;9.27;;
11319;SDS011;5715;48.234;14.320;2024-03-02T11:48:54;20.57;;;8.83;;
11319;SDS011;5715;48.234;14.320;2024-03-02T11:51:53;13.57;;;8.63;;
11319;SDS011;5715;48.234;14.320;2024-03-02T11:54:49;16.03;;;8.63;;
11319;SDS011;5715;48.234;14.320;2024-03-02T11:57:38;20.30;;;8.53;;
11319;SDS011;5715;48.234;14.320;2024-03-02T12:00:26;19.07;;;8.83;;
11319;SDS011;5715;48.234;14.320;2024-03-02T12:03:14;22.07;;;9.60;;
11319;SDS011;5715;48.234;14.320;2024-03-02T12:06:04;21.47;;;10.60;;
11319;SDS011;5715;48.234;14.320;2024-03-02T12:08:53;19.13;;;10.73;;
11319;SDS011;5715;48.234;14.320;2024-03-02T12:11:42;21.77;;;8.77;;
11319;SDS011;5715;48.234;14.320;2024-03-02T12:14:30;13.80;;;6.97;;
11319;SDS011;5715;48.234;14.320;2024-03-02T12:17:18;13.30;;;7.87;;
11319;SDS011;5715;48.234;14.320;2024-03-02T12:20:06;13.00;;;6.27;;
11319;SDS011;5715;48.234;14.320;2024-03-02T12:22:59;11.73;;;6.23;;
11319;SDS011;5715;48.234;14.320;2024-03-02T12:25:49;9.20;;;6.13;;
11319;SDS011;5715;48.234;14.320;2024-03-02T12:28:37;18.93;;;6.70;;
11319;SDS011;5715;48.234;14.320;2024-03-02T12:31:25;15.97;;;6.90;;
11319;SDS011;5715;48.234;14.320;2024-03-02T12:34:13;11.20;;;5.70;;
11319;SDS011;5715;48.234;14.320;2024-03-02T12:37:03;11.37;;;7.17;;
11319;SDS011;5715;48.234;14.320;2024-03-02T12:39:52;10.50;;;6.13;;
11319;SDS011;5715;48.234;14.320;2024-03-02T12:42:40;12.73;;;6.37;;
11319;SDS011;5715;48.234;14.320;2024-03-02T12:45:31;9.77;;;5.70;;
11319;SDS011;5715;48.234;14.320;2024-03-02T12:48:18;9.13;;;5.83;;
11319;SDS011;5715;48.234;14.320;2024-03-02T12:51:06;13.77;;;5.80;;
11319;SDS011;5715;48.234;14.320;2024-03-02T12:53:54;9.33;;;6.13;;
11319;SDS011;5715;48.234;14.320;2024-03-02T12:56:44;12.77;;;5.67;;
11319;SDS011;5715;48.234;14.320;2024-03-02T12:59:33;9.67;;;5.30;;
11319;SDS011;5715;48.234;14.320;2024-03-02T13:02:20;10.17;;;6.50;;
11319;SDS011;5715;48.234;14.320;2024-03-02T13:05:08;10.93;;;5.30;;
11319;SDS011;5715;48.234;14.320;2024-03-02T13:07:59;12.17;;;6.43;;
11319;SDS011;5715;48.234;14.320;2024-03-02T13:10:50;9.83;;;5.67;;
11319;SDS011;5715;48.234;14.320;2024-03-02T13:13:38;13.27;;;5.93;;
11319;SDS011;5715;48.234;14.320;2024-03-02T13:16:27;10.50;;;6.67;;
11319;SDS011;5715;48.234;14.320;2024-03-02T13:19:22;9.77;;;5.83;;
11319;SDS011;5715;48.234;14.320;2024-03-02T13:22:10;10.87;;;5.77;;
11319;SDS011;5715;48.234;14.320;2024-03-02T13:24:57;10.37;;;6.47;;
11319;SDS011;5715;48.234;14.320;2024-03-02T13:27:46;11.43;;;6.47;;
11319;SDS011;5715;48.234;14.320;2024-03-02T13:30:34;9.40;;;6.23;;
11319;SDS011;5715;48.234;14.320;2024-03-02T13:33:22;7.77;;;5.83;;
11319;SDS011;5715;48.234;14.320;2024-03-02T13:36:09;12.90;;;6.40;;
11319;SDS011;5715;48.234;14.320;2024-03-02T13:38:57;8.60;;;5.70;;
11319;SDS011;5715;48.234;14.320;2024-03-02T13:41:45;14.27;;;7.27;;
11319;SDS011;5715;48.234;14.320;2024-03-02T13:44:39;11.03;;;6.63;;
11319;SDS011;5715;48.234;14.320;2024-03-02T13:47:28;11.73;;;6.60;;
11319;SDS011;5715;48.234;14.320;2024-03-02T13:50:16;13.27;;;7.37;;
11319;SDS011;5715;48.234;14.320;2024-03-02T13:53:03;8.60;;;5.73;;
11319;SDS011;5715;48.234;14.320;2024-03-02T13:55:51;9.77;;;5.60;;
11319;SDS011;5715;48.234;14.320;2024-03-02T13:58:40;13.23;;;7.57;;
11319;SDS011;5715;48.234;14.320;2024-03-02T14:01:30;10.17;;;6.13;;
11319;SDS011;5715;48.234;14.320;2024-03-02T14:04:19;10.73;;;6.93;;
11319;SDS011;5715;48.234;14.320;2024-03-02T14:07:14;10.20;;;5.97;;
11319;SDS011;5715;48.234;14.320;2024-03-02T14:10:01;10.40;;;5.70;;
11319;SDS011;5715;48.234;14.320;2024-03-02T14:12:50;7.43;;;5.27;;
11319;SDS011;5715;48.234;14.320;2024-03-02T14:15:37;9.67;;;6.10;;
11319;SDS011;5715;48.234;14.320;2024-03-02T14:18:26;14.13;;;6.63;;
11319;SDS011;5715;48.234;14.320;2024-03-02T14:21:14;12.40;;;6.10;;
11319;SDS011;5715;48.234;14.320;2024-03-02T14:24:01;13.13;;;7.07;;
11319;SDS011;5715;48.234;14.320;2024-03-02T14:26:49;12.57;;;5.03;;
11319;SDS011;5715;48.234;14.320;2024-03-02T14:29:48;11.27;;;5.20;;
11319;SDS011;5715;48.234;14.320;2024-03-02T14:32:36;15.87;;;6.33;;
11319;SDS011;5715;48.234;14.320;2024-03-02T14:35:23;10.57;;;5.87;;
11319;SDS011;5715;48.234;14.320;2024-03-02T14:38:12;27.37;;;6.83;;
11319;SDS011;5715;48.234;14.320;2024-03-02T14:41:00;7.37;;;4.73;;
11319;SDS011;5715;48.234;14.320;2024-03-02T14:43:47;13.00;;;7.73;;
11319;SDS011;5715;48.234;14.320;2024-03-02T14:46:36;9.53;;;6.00;;
11319;SDS011;5715;48.234;14.320;2024-03-02T14:49:24;11.57;;;6.80;;
11319;SDS011;5715;48.234;14.320;2024-03-02T14:52:12;10.00;;;4.67;;
11319;SDS011;5715;48.234;14.320;2024-03-02T14:55:01;7.43;;;4.97;;
11319;SDS011;5715;48.234;14.320;2024-03-02T14:57:54;11.30;;;5.97;;
11319;SDS011;5715;48.234;14.320;2024-03-02T15:00:42;11.37;;;5.97;;
11319;SDS011;5715;48.234;14.320;2024-03-02T15:03:30;9.90;;;5.93;;
11319;SDS011;5715;48.234;14.320;2024-03-02T15:06:18;9.80;;;5.57;;
11319;SDS011;5715;48.234;14.320;2024-03-02T15:09:06;12.97;;;6.60;;
11319;SDS011;5715;48.234;14.320;2024-03-02T15:11:53;9.97;;;5.23;;
11319;SDS011;5715;48.234;14.320;2024-03-02T15:14:41;9.37;;;6.83;;
11319;SDS011;5715;48.234;14.320;2024-03-02T15:17:32;8.00;;;5.07;;
11319;SDS011;5715;48.234;14.320;2024-03-02T15:20:20;10.10;;;5.00;;
11319;SDS011;5715;48.234;14.320;2024-03-02T15:23:08;8.43;;;5.63;;
11319;SDS011;5715;48.234;14.320;2024-03-02T15:25:56;8.80;;;5.23;;
11319;SDS011;5715;48.234;14.320;2024-03-02T15:28:44;10.27;;;5.37;;
11319;SDS011;5715;48.234;14.320;2024-03-02T15:31:31;6.73;;;4.53;;
11319;SDS011;5715;48.234;14.320;2024-03-02T15:34:20;14.03;;;5.63;;
11319;SDS011;5715;48.234;14.320;2024-03-02T15:37:08;8.00;;;4.77;;
11319;SDS011;5715;48.234;14.320;2024-03-02T15:39:56;8.83;;;4.90;;
11319;SDS011;5715;48.234;14.320;2024-03-02T15:42:43;8.20;;;4.87;;
11319;SDS011;5715;48.234;14.320;2024-03-02T15:45:31;13.63;;;6.20;;
11319;SDS011;5715;48.234;14.320;2024-03-02T15:48:20;9.33;;;5.80;;
11319;SDS011;5715;48.234;14.320;2024-03-02T15:51:10;10.13;;;6.37;;
11319;SDS011;5715;48.234;14.320;2024-03-02T15:53:58;10.20;;;6.70;;
11319;SDS011;5715;48.234;14.320;2024-03-02T15:56:46;8.00;;;5.00;;
11319;SDS011;5715;48.234;14.320;2024-03-02T15:59:34;14.93;;;7.40;;
11319;SDS011;5715;48.234;14.320;2024-03-02T16:02:22;8.17;;;5.30;;
11319;SDS011;5715;48.234;14.320;2024-03-02T16:05:09;11.27;;;7.07;;
11319;SDS011;5715;48.234;14.320;2024-03-02T16:07:57;8.60;;;6.17;;
11319;SDS011;5715;48.234;14.320;2024-03-02T16:10:45;8.07;;;5.70;;
11319;SDS011;5715;48.234;14.320;2024-03-02T16:13:33;13.10;;;5.90;;
11319;SDS011;5715;48.234;14.320;2024-03-02T16:16:22;11.37;;;6.90;;
11319;SDS011;5715;48.234;14.320;2024-03-02T16:19:10;10.60;;;5.63;;
11319;SDS011;5715;48.234;14.320;2024-03-02T16:22:10;10.30;;;6.53;;
11319;SDS011;5715;48.234;14.320;2024-03-02T16:24:58;16.30;;;7.50;;
11319;SDS011;5715;48.234;14.320;2024-03-02T16:27:46;14.10;;;7.23;;
11319;SDS011;5715;48.234;14.320;2024-03-02T16:30:34;10.93;;;6.73;;
11319;SDS011;5715;48.234;14.320;2024-03-02T16:33:22;10.60;;;6.93;;
11319;SDS011;5715;48.234;14.320;2024-03-02T16:36:11;13.73;;;8.17;;
11319;SDS011;5715;48.234;14.320;2024-03-02T16:38:58;13.07;;;7.87;;
11319;SDS011;5715;48.234;14.320;2024-03-02T16:41:46;11.87;;;6.47;;
11319;SDS011;5715;48.234;14.320;2024-03-02T16:44:34;15.17;;;6.80;;